Glory Pegasus — 3FIL8 — position and weather

sailwx.info

Track history (hours):
 
Tides and Currents Weather Stations Pressure Air Temp Water Temp Dewpoint Dewpoint Depression Visibility Wind Speed Wind Dir Waves Ship Positions

Glory Pegasus

Last reported at 2017-Sep-13 01:08 UTC. Time now 2017-Sep-19 20:48 UTC.
Position S 31°19' E 037°05'.

Length 229 m; draft 13.1 m.

Type: Cargo ship. MMSI: 354780000.

Date/timePositionNaut miles runAvg speedWind from/ knotsBaromVisibWave heightAir tempDewpointWater temp
2017-Sep-13 01:08S 31°19' E 037°05'1 9.9
2017-Sep-13 00:59S 31°19' E 037°03'15 9.8
2017-Sep-12 23:29S 31°25' E 036°47'5 9.8
2017-Sep-12 23:00S 31°26' E 036°42'510.0
2017-Sep-12 22:30S 31°28' E 036°36'510.2
2017-Sep-12 22:00S 31°30' E 036°31'6310.4
2017-Sep-12 15:53S 31°54' E 035°22'410.6
2017-Sep-12 15:30S 31°56' E 035°18'1210.8
2017-Sep-12 14:24S 32°00' E 035°05'410.8
2017-Sep-12 14:00S 32°02' E 034°60'510.8
2017-Sep-12 13:30S 32°04' E 034°54'510.6
2017-Sep-12 13:00S 32°06' E 034°48'510.5
2017-Sep-12 12:30S 32°08' E 034°42'510.6
2017-Sep-12 12:00S 32°10' E 034°37'510.7
2017-Sep-12 11:30S 32°12' E 034°31'510.8
2017-Sep-12 11:00S 32°14' E 034°25'610.9
2017-Sep-12 10:30S 32°16' E 034°19'611.1
2017-Sep-12 10:00S 32°18' E 034°13'611.2
2017-Sep-12 09:30S 32°20' E 034°07'2011.5
2017-Sep-12 07:48S 32°28' E 033°45'311.2
2017-Sep-12 07:30S 32°29' E 033°42'4211.1
2017-Sep-12 03:44S 32°45' E 032°55'210.9
2017-Sep-12 03:30S 32°46' E 032°53'  
Track history (hours):
 
Tides and Currents Weather Stations Pressure Air Temp Water Temp Dewpoint Dewpoint Depression Visibility Wind Speed Wind Dir Waves Ship Positions

Glory Pegasus

Last reported at 2017-Sep-13 01:08 UTC. Time now 2017-Sep-19 20:48 UTC.
Position S 31°19' E 037°05'.

Length 229 m; draft 13.1 m.

Type: Cargo ship. MMSI: 354780000.

Date/timePositionNaut miles runAvg speedWind from/ knotsBaromVisibWave heightAir tempDewpointWater temp
2017-Sep-13 01:08S 31°19' E 037°05'1 9.9
2017-Sep-13 00:59S 31°19' E 037°03'15 9.8
2017-Sep-12 23:29S 31°25' E 036°47'5 9.8
2017-Sep-12 23:00S 31°26' E 036°42'510.0
2017-Sep-12 22:30S 31°28' E 036°36'510.2
2017-Sep-12 22:00S 31°30' E 036°31'6310.4
2017-Sep-12 15:53S 31°54' E 035°22'410.6
2017-Sep-12 15:30S 31°56' E 035°18'1210.8
2017-Sep-12 14:24S 32°00' E 035°05'410.8
2017-Sep-12 14:00S 32°02' E 034°60'510.8
2017-Sep-12 13:30S 32°04' E 034°54'510.6
2017-Sep-12 13:00S 32°06' E 034°48'510.5
2017-Sep-12 12:30S 32°08' E 034°42'510.6
2017-Sep-12 12:00S 32°10' E 034°37'510.7
2017-Sep-12 11:30S 32°12' E 034°31'510.8
2017-Sep-12 11:00S 32°14' E 034°25'610.9
2017-Sep-12 10:30S 32°16' E 034°19'611.1
2017-Sep-12 10:00S 32°18' E 034°13'611.2
2017-Sep-12 09:30S 32°20' E 034°07'2011.5
2017-Sep-12 07:48S 32°28' E 033°45'311.2
2017-Sep-12 07:30S 32°29' E 033°42'4211.1
2017-Sep-12 03:44S 32°45' E 032°55'210.9
2017-Sep-12 03:30S 32°46' E 032°53'  

Dump ship's entire track history